^^
Station Historical Data
Daily Summary for January 1, 2017 Units:  English    Metric   Both
« Previous Day
Next Day »
Daily Weekly Monthly Yearly Custom
  High: Low: Average:
Temperature: 47.6 °F 28.4 °F 39.3 °F
Dew Point: 30.7 °F 22.8 °F 25.9 °F
Humidity: 80 % 41 % 60 %
Wind Speed: 15.6 mph 0.0 mph 2.6 mph
Wind Gust: 21.9 mph - -
Wind:- - West
Pressure: 30.42 in 29.90 in -
Precipitation: 0.00 in    
Historical Graphs
 
 
Tabular Data for January 1, 2017
Time Temperature Dew Point Pressure Wind Wind Speed Wind Gust Humidity Rainfall Rate (Hourly) solar Conditions
00:03 41.2 °F 26.2 °F 29.90 in WSW 3.5 mph 5.8 mph 55 % 0.00 in 0.0 W/m2 CLR
00:08 41.1 °F 26.6 °F 29.91 in WSW 1.1 mph 4.6 mph 56 % 0.00 in 0.0 W/m2 CLR
00:13 41.1 °F 26.6 °F 29.91 in SW 1.7 mph 5.0 mph 56 % 0.00 in 0.0 W/m2 CLR
00:18 41.1 °F 26.6 °F 29.91 in WSW 1.7 mph 3.5 mph 56 % 0.00 in 0.0 W/m2 CLR
00:23 41.0 °F 26.5 °F 29.91 in WSW 3.2 mph 4.6 mph 56 % 0.00 in 0.0 W/m2 CLR
00:28 41.0 °F 26.5 °F 29.91 in WSW 1.6 mph 3.5 mph 56 % 0.00 in 0.0 W/m2 CLR
00:33 41.0 °F 26.5 °F 29.91 in WSW 0.6 mph 3.0 mph 56 % 0.00 in 0.0 W/m2 CLR
00:38 40.9 °F 26.4 °F 29.91 in WSW 0.2 mph 3.5 mph 56 % 0.00 in 0.0 W/m2 CLR
00:43 40.7 °F 26.6 °F 29.91 in WSW 1.0 mph 6.0 mph 57 % 0.00 in 0.0 W/m2 CLR
00:48 40.6 °F 27.0 °F 29.91 in WSW 0.5 mph 2.3 mph 58 % 0.00 in 0.0 W/m2 CLR
00:53 40.4 °F 26.8 °F 29.91 in WSW 0.5 mph 3.5 mph 58 % 0.00 in 0.0 W/m2 CLR
00:58 40.3 °F 26.7 °F 29.91 in WSW 0.7 mph 2.3 mph 58 % 0.00 in 0.0 W/m2 CLR
01:03 40.2 °F 27.0 °F 29.92 in WSW 0.1 mph 4.0 mph 59 % 0.00 in 0.0 W/m2 CLR
01:08 40.1 °F 27.3 °F 29.92 in WSW 1.1 mph 2.3 mph 60 % 0.00 in 0.0 W/m2 CLR
01:13 40.1 °F 27.3 °F 29.92 in WSW 2.1 mph 3.5 mph 60 % 0.00 in 0.0 W/m2 CLR
01:18 40.2 °F 27.0 °F 29.92 in SW 1.4 mph 3.5 mph 59 % 0.00 in 0.0 W/m2 CLR
01:23 40.4 °F 26.8 °F 29.92 in WSW 3.2 mph 6.9 mph 58 % 0.00 in 0.0 W/m2 CLR
01:28 40.6 °F 27.0 °F 29.92 in WSW 1.6 mph 4.0 mph 58 % 0.00 in 0.0 W/m2 CLR
01:33 40.6 °F 26.5 °F 29.92 in SW 3.3 mph 4.6 mph 57 % 0.00 in 0.0 W/m2 CLR
01:38 40.8 °F 26.7 °F 29.92 in WSW 3.6 mph 6.9 mph 57 % 0.00 in 0.0 W/m2 CLR
01:43 40.9 °F 26.4 °F 29.92 in SW 3.2 mph 6.9 mph 56 % 0.00 in 0.0 W/m2 CLR
01:48 40.9 °F 26.4 °F 29.92 in West 1.0 mph 5.8 mph 56 % 0.00 in 0.0 W/m2 CLR
01:53 40.9 °F 26.4 °F 29.93 in SW 2.6 mph 4.6 mph 56 % 0.00 in 0.0 W/m2 CLR
01:58 40.9 °F 26.4 °F 29.93 in WSW 4.1 mph 4.6 mph 56 % 0.00 in 0.0 W/m2 CLR
02:03 40.9 °F 26.4 °F 29.92 in SW 2.5 mph 4.0 mph 56 % 0.00 in 0.0 W/m2 CLR
02:08 40.8 °F 26.3 °F 29.93 in WSW 4.1 mph 6.9 mph 56 % 0.00 in 0.0 W/m2 CLR
02:13 40.8 °F 26.3 °F 29.93 in SW 1.2 mph 4.6 mph 56 % 0.00 in 0.0 W/m2 CLR
02:18 40.8 °F 26.7 °F 29.94 in WSW 1.6 mph 3.5 mph 57 % 0.00 in 0.0 W/m2 CLR
02:23 40.8 °F 26.3 °F 29.93 in WSW 2.2 mph 4.6 mph 56 % 0.00 in 0.0 W/m2 CLR
02:28 40.7 °F 26.2 °F 29.94 in West 1.9 mph 6.0 mph 56 % 0.00 in 0.0 W/m2 CLR
02:33 40.6 °F 26.1 °F 29.94 in WSW 1.3 mph 3.5 mph 56 % 0.00 in 0.0 W/m2 CLR
02:39 40.4 °F 26.4 °F 29.94 in WSW 2.9 mph 4.6 mph 57 % 0.00 in 0.0 W/m2 CLR
02:44 40.4 °F 26.4 °F 29.94 in WSW 2.4 mph 3.5 mph 57 % 0.00 in 0.0 W/m2 CLR
02:49 40.4 °F 25.9 °F 29.95 in WSW 2.3 mph 5.0 mph 56 % 0.00 in 0.0 W/m2 CLR
02:54 40.4 °F 26.4 °F 29.95 in WSW 2.0 mph 5.8 mph 57 % 0.00 in 0.0 W/m2 CLR
02:59 40.4 °F 26.4 °F 29.95 in WSW 0.9 mph 3.5 mph 57 % 0.00 in 0.0 W/m2 CLR
03:04 40.4 °F 26.4 °F 29.95 in WSW 2.4 mph 4.0 mph 57 % 0.00 in 0.0 W/m2 CLR
03:09 40.6 °F 26.5 °F 29.95 in WSW 2.9 mph 8.1 mph 57 % 0.00 in 0.0 W/m2 CLR
03:14 40.7 °F 26.6 °F 29.96 in WSW 6.4 mph 8.1 mph 57 % 0.00 in 0.0 W/m2 CLR
03:19 40.8 °F 26.3 °F 29.96 in SW 1.3 mph 4.0 mph 56 % 0.00 in 0.0 W/m2 CLR
03:24 40.8 °F 26.3 °F 29.96 in WSW 4.9 mph 7.0 mph 56 % 0.00 in 0.0 W/m2 CLR
03:29 40.9 °F 26.4 °F 29.97 in West 1.5 mph 3.5 mph 56 % 0.00 in 0.0 W/m2 CLR
03:34 40.9 °F 26.4 °F 29.97 in SW 4.9 mph 8.1 mph 56 % 0.00 in 0.0 W/m2 CLR
03:39 41.0 °F 26.5 °F 29.97 in West 6.1 mph 8.1 mph 56 % 0.00 in 0.0 W/m2 CLR
03:44 41.0 °F 26.5 °F 29.97 in WSW 2.7 mph 6.9 mph 56 % 0.00 in 0.0 W/m2 CLR
03:49 40.9 °F 26.8 °F 29.97 in WSW 2.8 mph 4.6 mph 57 % 0.00 in 0.0 W/m2 CLR
03:54 40.7 °F 26.6 °F 29.97 in West 3.6 mph 5.8 mph 57 % 0.00 in 0.0 W/m2 CLR
03:59 40.6 °F 27.0 °F 29.97 in WSW 1.9 mph 6.9 mph 58 % 0.00 in 0.0 W/m2 CLR
04:04 40.5 °F 26.9 °F 29.98 in WSW 1.6 mph 7.0 mph 58 % 0.00 in 0.0 W/m2 CLR
04:09 40.5 °F 26.9 °F 29.97 in WSW 2.5 mph 7.0 mph 58 % 0.00 in 0.0 W/m2 CLR
04:14 40.5 °F 26.9 °F 29.98 in WSW 2.4 mph 3.5 mph 58 % 0.00 in 0.0 W/m2 CLR
04:19 40.3 °F 26.7 °F 29.97 in WSW 1.2 mph 3.5 mph 58 % 0.00 in 0.0 W/m2 CLR
04:24 40.1 °F 26.5 °F 29.98 in SW 3.2 mph 4.6 mph 58 % 0.00 in 0.0 W/m2 CLR
04:29 39.9 °F 26.7 °F 29.98 in Calm     59 % 0.00 in 0.0 W/m2 CLR
04:34 39.5 °F 26.3 °F 29.99 in Calm   2.3 mph 59 % 0.00 in 0.0 W/m2 CLR
04:39 39.1 °F 26.8 °F 29.99 in WSW 0.4 mph 2.3 mph 61 % 0.00 in 0.0 W/m2 CLR
04:44 38.8 °F 26.5 °F 30.00 in Calm   2.3 mph 61 % 0.00 in 0.0 W/m2 CLR
04:49 38.5 °F 26.6 °F 30.00 in WSW 1.8 mph 3.5 mph 62 % 0.00 in 0.0 W/m2 CLR
04:54 38.8 °F 26.9 °F 30.00 in Calm   1.0 mph 62 % 0.00 in 0.0 W/m2 CLR
04:59 38.8 °F 26.9 °F 30.01 in West 1.1 mph 3.5 mph 62 % 0.00 in 0.0 W/m2 CLR
05:04 38.8 °F 26.9 °F 30.00 in Calm   1.2 mph 62 % 0.00 in 0.0 W/m2 CLR
05:09 38.6 °F 27.1 °F 30.01 in West 3.2 mph 6.9 mph 63 % 0.00 in 0.0 W/m2 CLR
05:14 38.6 °F 27.1 °F 30.01 in West 2.3 mph 4.0 mph 63 % 0.00 in 0.0 W/m2 CLR
05:19 38.8 °F 27.3 °F 30.01 in WSW 3.2 mph 5.8 mph 63 % 0.00 in 0.0 W/m2 CLR
05:24 39.1 °F 27.2 °F 30.02 in West 4.1 mph 7.0 mph 62 % 0.00 in 0.0 W/m2 CLR
05:29 39.0 °F 27.1 °F 30.02 in West 0.1 mph 1.2 mph 62 % 0.00 in 0.0 W/m2 CLR
05:34 38.6 °F 26.7 °F 30.02 in WSW 0.4 mph 2.3 mph 62 % 0.00 in 0.0 W/m2 CLR
05:39 38.3 °F 26.8 °F 30.03 in WSW 0.5 mph 4.6 mph 63 % 0.00 in 0.0 W/m2 CLR
05:44 38.0 °F 26.5 °F 30.03 in Calm   1.2 mph 63 % 0.00 in 0.0 W/m2 CLR
05:49 37.4 °F 26.3 °F 30.03 in WSW 1.0 mph 3.5 mph 64 % 0.00 in 0.0 W/m2 CLR
05:54 37.1 °F 26.4 °F 30.03 in WSW 0.6 mph 3.5 mph 65 % 0.00 in 0.0 W/m2 CLR
05:59 37.2 °F 26.9 °F 30.03 in SW 1.7 mph 3.5 mph 66 % 0.00 in 0.0 W/m2 CLR
06:04 37.6 °F 26.9 °F 30.04 in WSW 1.1 mph 6.9 mph 65 % 0.00 in 0.0 W/m2 CLR
06:09 38.0 °F 27.3 °F 30.04 in WSW 2.2 mph 6.9 mph 65 % 0.00 in 0.0 W/m2 CLR
06:14 38.2 °F 27.5 °F 30.04 in WSW 2.3 mph 4.0 mph 65 % 0.00 in 0.0 W/m2 CLR
06:19 38.6 °F 27.8 °F 30.04 in WSW 2.1 mph 3.5 mph 65 % 0.00 in 0.0 W/m2 CLR
06:24 38.8 °F 27.7 °F 30.04 in WSW 1.9 mph 4.6 mph 64 % 0.00 in 0.0 W/m2 CLR
06:29 38.8 °F 27.7 °F 30.05 in SSW 0.1 mph 3.5 mph 64 % 0.00 in 0.0 W/m2 CLR
06:35 38.4 °F 27.3 °F 30.06 in SW 0.3 mph 3.5 mph 64 % 0.00 in 0.0 W/m2 CLR
06:40 38.0 °F 27.3 °F 30.06 in SW 0.2 mph 1.0 mph 65 % 0.00 in 0.0 W/m2 CLR
06:45 37.7 °F 27.0 °F 30.06 in West 1.3 mph 3.5 mph 65 % 0.00 in 0.0 W/m2 CLR
06:49 37.6 °F 27.3 °F 30.07 in West 1.5 mph 3.5 mph 66 % 0.00 in 0.0 W/m2 CLR
06:55 37.1 °F 27.2 °F 30.07 in West 0.4 mph 2.3 mph 67 % 0.00 in 0.0 W/m2 CLR
07:00 36.9 °F 27.3 °F 30.08 in West 0.1 mph 2.3 mph 68 % 0.00 in 0.0 W/m2 CLR
07:05 36.9 °F 27.3 °F 30.08 in Calm     68 % 0.00 in 0.0 W/m2 OVC
07:10 36.9 °F 27.3 °F 30.09 in Calm     68 % 0.00 in 0.0 W/m2 OVC
07:15 36.8 °F 27.2 °F 30.09 in Calm     68 % 0.00 in 0.0 W/m2 OVC
07:20 36.6 °F 27.0 °F 30.09 in Calm     68 % 0.00 in 0.0 W/m2 OVC
07:25 36.5 °F 27.3 °F 30.10 in Calm     69 % 0.00 in 0.0 W/m2 OVC
07:30 36.6 °F 27.4 °F 30.09 in WNW 2.2 mph 3.5 mph 69 % 0.00 in 5.0 W/m2 OVC
07:35 37.2 °F 28.0 °F 30.10 in WNW 1.6 mph 3.5 mph 69 % 0.00 in 7.0 W/m2 OVC
07:40 37.3 °F 28.1 °F 30.10 in West 0.6 mph 3.5 mph 69 % 0.00 in 11.0 W/m2 OVC
07:45 36.6 °F 27.7 °F 30.10 in West 1.0 mph 3.5 mph 70 % 0.00 in 12.0 W/m2 CLR
07:50 36.7 °F 27.8 °F 30.11 in West 0.3 mph 2.3 mph 70 % 0.00 in 16.0 W/m2 CLR
07:55 36.8 °F 27.9 °F 30.11 in WSW 0.9 mph 6.9 mph 70 % 0.00 in 19.0 W/m2 CLR
08:00 37.3 °F 28.4 °F 30.12 in West 5.8 mph 10.4 mph 70 % 0.00 in 21.0 W/m2 CLR
08:05 37.7 °F 28.8 °F 30.12 in West 4.7 mph 6.9 mph 70 % 0.00 in 23.0 W/m2 CLR
08:10 38.1 °F 29.2 °F 30.12 in West 1.5 mph 3.5 mph 70 % 0.00 in 25.0 W/m2 FEW
08:15 38.4 °F 29.5 °F 30.13 in West 4.1 mph 6.9 mph 70 % 0.00 in 37.0 W/m2 CLR
08:20 38.9 °F 29.6 °F 30.13 in West 4.2 mph 9.2 mph 69 % 0.00 in 32.0 W/m2 SCT
08:25 39.4 °F 30.1 °F 30.14 in WSW 5.3 mph 10.4 mph 69 % 0.00 in 39.0 W/m2 FEW
08:30 40.2 °F 30.5 °F 30.14 in WNW 4.2 mph 10.4 mph 68 % 0.00 in 54.0 W/m2 CLR
08:35 40.8 °F 30.7 °F 30.15 in West 3.8 mph 6.9 mph 67 % 0.00 in 33.0 W/m2 SCT
08:40 41.0 °F 30.5 °F 30.15 in West 3.8 mph 5.8 mph 66 % 0.00 in 104.0 W/m2 CLR
08:45 41.0 °F 30.5 °F 30.15 in West 5.2 mph 8.1 mph 66 % 0.00 in 127.0 W/m2 CLR
08:50 41.2 °F 30.3 °F 30.15 in West 2.0 mph 9.2 mph 65 % 0.00 in 107.0 W/m2 CLR
08:55 41.3 °F 30.4 °F 30.16 in West 5.7 mph 10.4 mph 65 % 0.00 in 121.0 W/m2 CLR
09:00 41.6 °F 30.3 °F 30.16 in WNW 3.3 mph 9.2 mph 64 % 0.00 in 88.0 W/m2 CLR
09:05 41.9 °F 30.2 °F 30.16 in West 5.3 mph 11.5 mph 63 % 0.00 in 116.0 W/m2 CLR
09:10 42.3 °F 30.2 °F 30.16 in West 3.4 mph 8.1 mph 62 % 0.00 in 70.0 W/m2 SCT
09:15 42.6 °F 30.5 °F 30.17 in WNW 2.9 mph 5.8 mph 62 % 0.00 in 121.0 W/m2 CLR
09:20 42.7 °F 29.8 °F 30.17 in WNW 7.6 mph 10.4 mph 60 % 0.00 in 102.0 W/m2 SCT
09:25 42.7 °F 29.4 °F 30.17 in West 8.1 mph 12.7 mph 59 % 0.00 in 134.0 W/m2 CLR
09:30 42.8 °F 29.5 °F 30.18 in NW 10.0 mph 13.0 mph 59 % 0.00 in 207.0 W/m2 CLR
09:35 43.0 °F 29.6 °F 30.18 in WNW 7.7 mph 16.1 mph 59 % 0.00 in 214.0 W/m2 CLR
09:40 43.2 °F 29.4 °F 30.19 in NNW 8.5 mph 11.5 mph 58 % 0.00 in 169.0 W/m2 CLR
09:45 43.3 °F 28.6 °F 30.19 in West 15.6 mph 21.9 mph 56 % 0.00 in 213.0 W/m2 CLR
09:51 43.3 °F 28.6 °F 30.19 in WNW 13.6 mph 19.6 mph 56 % 0.00 in 148.0 W/m2 SCT
09:56 43.4 °F 28.3 °F 30.19 in WNW 10.6 mph 17.3 mph 55 % 0.00 in 163.0 W/m2 CLR
10:01 43.4 °F 28.3 °F 30.19 in West 12.4 mph 19.6 mph 55 % 0.00 in 288.0 W/m2 CLR
10:06 43.5 °F 27.9 °F 30.20 in WNW 10.0 mph 18.4 mph 54 % 0.00 in 255.0 W/m2 CLR
10:11 43.6 °F 28.0 °F 30.20 in WNW 13.8 mph 19.6 mph 54 % 0.00 in 257.0 W/m2 CLR
10:16 43.6 °F 28.0 °F 30.20 in West 15.4 mph 21.9 mph 54 % 0.00 in 176.0 W/m2 BKN
10:21 43.5 °F 27.5 °F 30.20 in NW 14.5 mph 19.6 mph 53 % 0.00 in 128.0 W/m2 FEW
10:26 43.8 °F 27.8 °F 30.21 in West 12.2 mph 21.9 mph 53 % 0.00 in 216.0 W/m2 SCT
10:31 44.0 °F 27.5 °F 30.21 in West 11.5 mph 17.3 mph 52 % 0.00 in 200.0 W/m2 CLR
10:36 43.9 °F 27.4 °F 30.21 in WNW 12.0 mph 16.1 mph 52 % 0.00 in 137.0 W/m2 SCT
10:41 44.2 °F 27.7 °F 30.21 in WNW 7.8 mph 11.5 mph 52 % 0.00 in 218.0 W/m2 SCT
11:01 44.6 °F 27.1 °F 30.22 in NW 7.6 mph 18.4 mph 50 % 0.00 in 355.0 W/m2 CLR
11:06 44.8 °F 26.8 °F 30.22 in WNW 8.6 mph 15.0 mph 49 % 0.00 in 279.0 W/m2 CLR
11:11 44.9 °F 26.9 °F 30.21 in WNW 5.9 mph 15.0 mph 49 % 0.00 in 343.0 W/m2 CLR
11:16 44.9 °F 26.9 °F 30.21 in West 8.7 mph 14.0 mph 49 % 0.00 in 292.0 W/m2 CLR
11:21 44.8 °F 26.8 °F 30.21 in West 9.3 mph 16.0 mph 49 % 0.00 in 376.0 W/m2 CLR
11:26 44.5 °F 26.0 °F 30.21 in West 9.4 mph 12.7 mph 48 % 0.00 in 394.0 W/m2 CLR
11:31 44.6 °F 26.6 °F 30.21 in WNW 8.8 mph 12.7 mph 49 % 0.00 in 418.0 W/m2 CLR
11:36 44.6 °F 26.6 °F 30.21 in West 8.7 mph 13.0 mph 49 % 0.00 in 452.0 W/m2 CLR
11:41 44.7 °F 26.7 °F 30.21 in West 9.2 mph 13.8 mph 49 % 0.00 in 315.0 W/m2 CLR
11:46 44.6 °F 26.1 °F 30.21 in WNW 7.0 mph 11.5 mph 48 % 0.00 in 383.0 W/m2 CLR
11:51 45.1 °F 26.6 °F 30.21 in WNW 8.4 mph 11.5 mph 48 % 0.00 in 452.0 W/m2 CLR
11:56 45.7 °F 26.6 °F 30.21 in NW 3.6 mph 9.2 mph 47 % 0.00 in 401.0 W/m2 CLR
12:01 46.2 °F 27.6 °F 30.21 in NW 7.4 mph 12.7 mph 48 % 0.00 in 471.0 W/m2 CLR
12:06 46.4 °F 27.8 °F 30.20 in WNW 4.9 mph 8.1 mph 48 % 0.00 in 473.0 W/m2 CLR
12:11 46.6 °F 27.4 °F 30.20 in WNW 7.2 mph 11.5 mph 47 % 0.00 in 473.0 W/m2 CLR
12:16 46.4 °F 26.7 °F 30.21 in WNW 7.9 mph 10.4 mph 46 % 0.00 in 475.0 W/m2 CLR
12:21 46.5 °F 26.3 °F 30.21 in NW 4.3 mph 9.2 mph 45 % 0.00 in 471.0 W/m2 CLR
12:26 46.6 °F 26.9 °F 30.21 in NW 8.7 mph 11.5 mph 46 % 0.00 in 469.0 W/m2 CLR
12:31 46.4 °F 26.7 °F 30.21 in West 5.8 mph 8.1 mph 46 % 0.00 in 471.0 W/m2 CLR
12:36 46.4 °F 27.2 °F 30.21 in WNW 5.1 mph 9.2 mph 47 % 0.00 in 468.0 W/m2 CLR
12:41 46.9 °F 27.2 °F 30.21 in NW 8.5 mph 10.4 mph 46 % 0.00 in 466.0 W/m2 CLR
12:46 46.8 °F 26.0 °F 30.21 in WNW 7.0 mph 11.5 mph 44 % 0.00 in 462.0 W/m2 CLR
12:51 47.1 °F 26.3 °F 30.21 in West 6.5 mph 15.0 mph 44 % 0.00 in 457.0 W/m2 CLR
12:56 46.2 °F 25.5 °F 30.21 in WNW 6.7 mph 10.4 mph 44 % 0.00 in 450.0 W/m2 CLR
13:01 46.8 °F 26.0 °F 30.21 in West 3.1 mph 8.1 mph 44 % 0.00 in 450.0 W/m2 CLR
13:06 47.0 °F 26.2 °F 30.21 in NW 6.9 mph 9.0 mph 44 % 0.00 in 445.0 W/m2 CLR
13:11 46.9 °F 26.1 °F 30.22 in NNW 4.1 mph 8.1 mph 44 % 0.00 in 438.0 W/m2 CLR
13:16 47.5 °F 26.1 °F 30.22 in NW 6.1 mph 10.4 mph 43 % 0.00 in 431.0 W/m2 CLR
13:21 47.5 °F 26.1 °F 30.22 in NNW 8.6 mph 10.4 mph 43 % 0.00 in 422.0 W/m2 CLR
13:26 46.9 °F 24.4 °F 30.22 in WNW 4.2 mph 8.1 mph 41 % 0.00 in 417.0 W/m2 CLR
13:31 47.1 °F 25.7 °F 30.22 in NNW 5.4 mph 11.5 mph 43 % 0.00 in 408.0 W/m2 CLR
13:36 47.2 °F 25.3 °F 30.22 in WSW 3.0 mph 9.2 mph 42 % 0.00 in 399.0 W/m2 CLR
13:41 46.5 °F 24.6 °F 30.22 in NW 2.3 mph 5.0 mph 42 % 0.00 in 392.0 W/m2 CLR
13:46 47.3 °F 24.8 °F 30.22 in NW 6.1 mph 9.2 mph 41 % 0.00 in 387.0 W/m2 CLR
13:51 47.5 °F 25.5 °F 30.22 in WNW 3.9 mph 10.4 mph 42 % 0.00 in 376.0 W/m2 CLR
13:57 46.4 °F 24.5 °F 30.22 in West 2.4 mph 6.0 mph 42 % 0.00 in 369.0 W/m2 CLR
14:02 46.5 °F 25.2 °F 30.22 in WNW 2.7 mph 7.0 mph 43 % 0.00 in 359.0 W/m2 CLR
14:07 46.8 °F 24.3 °F 30.22 in West 3.2 mph 8.0 mph 41 % 0.00 in 350.0 W/m2 CLR
14:12 47.0 °F 25.1 °F 30.22 in WNW 3.7 mph 4.6 mph 42 % 0.00 in 338.0 W/m2 CLR
14:17 47.1 °F 25.2 °F 30.23 in NW 3.5 mph 9.2 mph 42 % 0.00 in 329.0 W/m2 CLR
14:22 47.2 °F 25.3 °F 30.23 in NW 3.3 mph 5.8 mph 42 % 0.00 in 318.0 W/m2 CLR
14:27 46.8 °F 24.9 °F 30.23 in NW 2.9 mph 4.0 mph 42 % 0.00 in 306.0 W/m2 CLR
14:32 47.2 °F 25.3 °F 30.23 in NW 2.6 mph 4.6 mph 42 % 0.00 in 297.0 W/m2 CLR
14:37 47.6 °F 25.6 °F 30.23 in WNW 2.6 mph 4.6 mph 42 % 0.00 in 281.0 W/m2 CLR
14:42 47.3 °F 25.3 °F 30.24 in NW 3.4 mph 6.0 mph 42 % 0.00 in 267.0 W/m2 CLR
14:47 47.0 °F 25.1 °F 30.24 in West 3.5 mph 3.5 mph 42 % 0.00 in 253.0 W/m2 CLR
14:52 46.8 °F 24.9 °F 30.25 in NW 2.3 mph 3.5 mph 42 % 0.00 in 237.0 W/m2 CLR
14:57 47.2 °F 25.3 °F 30.25 in West 2.0 mph 4.6 mph 42 % 0.00 in 221.0 W/m2 CLR
15:02 46.9 °F 24.4 °F 30.25 in WNW 1.1 mph 5.8 mph 41 % 0.00 in 206.0 W/m2 CLR
15:07 46.5 °F 25.2 °F 30.26 in WNW 0.2 mph 1.2 mph 43 % 0.00 in 190.0 W/m2 CLR
15:12 46.6 °F 24.7 °F 30.26 in West 3.1 mph 8.1 mph 42 % 0.00 in 178.0 W/m2 CLR
15:17 46.9 °F 25.0 °F 30.26 in WNW 1.4 mph 4.0 mph 42 % 0.00 in 162.0 W/m2 CLR
15:22 47.0 °F 25.1 °F 30.26 in NW 2.8 mph 3.5 mph 42 % 0.00 in 144.0 W/m2 CLR
15:27 46.8 °F 24.9 °F 30.26 in West 3.3 mph 4.6 mph 42 % 0.00 in 132.0 W/m2 CLR
15:32 46.5 °F 24.6 °F 30.27 in West 2.3 mph 5.8 mph 42 % 0.00 in 116.0 W/m2 CLR
15:37 46.8 °F 24.3 °F 30.27 in West 4.2 mph 7.0 mph 41 % 0.00 in 100.0 W/m2 CLR
15:42 46.2 °F 24.9 °F 30.28 in West 2.1 mph 3.5 mph 43 % 0.00 in 86.0 W/m2 CLR
15:47 46.1 °F 24.8 °F 30.28 in WNW 3.1 mph 3.5 mph 43 % 0.00 in 67.0 W/m2 CLR
15:52 46.3 °F 25.0 °F 30.28 in NW 0.1 mph 3.5 mph 43 % 0.00 in 47.0 W/m2 SCT
15:57 46.0 °F 24.2 °F 30.28 in WNW 2.7 mph 3.5 mph 42 % 0.00 in 39.0 W/m2 SCT
16:02 45.8 °F 24.0 °F 30.29 in WNW 1.8 mph 3.5 mph 42 % 0.00 in 33.0 W/m2 SCT
16:07 45.6 °F 24.4 °F 30.29 in WNW 0.3 mph 2.3 mph 43 % 0.00 in 26.0 W/m2 SCT
16:12 45.3 °F 24.6 °F 30.30 in WSW 0.5 mph 2.3 mph 44 % 0.00 in 23.0 W/m2 SCT
16:17 45.0 °F 24.4 °F 30.30 in WSW 1.8 mph 3.5 mph 44 % 0.00 in 19.0 W/m2 SCT
16:22 44.9 °F 25.3 °F 30.30 in WSW 1.0 mph 3.5 mph 46 % 0.00 in 16.0 W/m2 FEW
16:27 44.5 °F 25.5 °F 30.30 in WSW 1.0 mph 2.3 mph 47 % 0.00 in 14.0 W/m2 CLR
16:32 44.0 °F 25.0 °F 30.31 in Calm     47 % 0.00 in 11.0 W/m2 CLR
16:37 43.9 °F 25.5 °F 30.31 in Calm     48 % 0.00 in 7.0 W/m2 CLR
16:42 43.7 °F 25.3 °F 30.30 in WSW 0.4 mph 2.3 mph 48 % 0.00 in 5.0 W/m2 OVC
16:47 43.4 °F 25.0 °F 30.30 in Calm     48 % 0.00 in 0.0 W/m2 OVC
16:52 43.0 °F 25.1 °F 30.31 in Calm     49 % 0.00 in 0.0 W/m2 OVC
16:57 42.4 °F 25.5 °F 30.31 in Calm     51 % 0.00 in 0.0 W/m2 OVC
17:02 41.8 °F 25.0 °F 30.31 in Calm     51 % 0.00 in 0.0 W/m2 CLR
17:07 41.4 °F 25.1 °F 30.31 in Calm     52 % 0.00 in 0.0 W/m2 CLR
17:12 41.0 °F 25.2 °F 30.31 in Calm     53 % 0.00 in 0.0 W/m2 CLR
17:17 40.3 °F 25.0 °F 30.31 in Calm     54 % 0.00 in 0.0 W/m2 CLR
17:22 40.3 °F 25.0 °F 30.32 in Calm     54 % 0.00 in 0.0 W/m2 CLR
17:27 39.8 °F 24.9 °F 30.32 in Calm     55 % 0.00 in 0.0 W/m2 CLR
17:32 39.2 °F 24.8 °F 30.32 in Calm     56 % 0.00 in 0.0 W/m2 CLR
17:37 38.8 °F 25.3 °F 30.32 in Calm     58 % 0.00 in 0.0 W/m2 CLR
17:42 38.8 °F 24.9 °F 30.32 in Calm     57 % 0.00 in 0.0 W/m2 CLR
17:48 37.6 °F 24.6 °F 30.32 in Calm     59 % 0.00 in 0.0 W/m2 CLR
17:53 37.1 °F 24.5 °F 30.32 in Calm     60 % 0.00 in 0.0 W/m2 CLR
17:58 36.7 °F 24.5 °F 30.32 in Calm   1.2 mph 61 % 0.00 in 0.0 W/m2 CLR
18:03 36.1 °F 24.7 °F 30.33 in Calm     63 % 0.00 in 0.0 W/m2 CLR
18:08 36.1 °F 25.1 °F 30.33 in Calm     64 % 0.00 in 0.0 W/m2 CLR
18:13 36.5 °F 25.1 °F 30.33 in Calm     63 % 0.00 in 0.0 W/m2 CLR
18:18 36.2 °F 24.8 °F 30.34 in Calm     63 % 0.00 in 0.0 W/m2 CLR
18:23 35.8 °F 25.2 °F 30.34 in WSW 0.1 mph   65 % 0.00 in 0.0 W/m2 CLR
18:28 35.4 °F 24.8 °F 30.34 in Calm   1.2 mph 65 % 0.00 in 0.0 W/m2 CLR
18:33 34.5 °F 24.3 °F 30.35 in Calm     66 % 0.00 in 0.0 W/m2 CLR
18:38 34.7 °F 24.9 °F 30.35 in WSW 0.1 mph 2.0 mph 67 % 0.00 in 0.0 W/m2 CLR
18:43 34.6 °F 24.8 °F 30.35 in Calm     67 % 0.00 in 0.0 W/m2 CLR
18:48 33.9 °F 24.1 °F 30.36 in Calm     67 % 0.00 in 0.0 W/m2 CLR
18:53 34.1 °F 24.6 °F 30.35 in Calm     68 % 0.00 in 0.0 W/m2 CLR
18:58 34.1 °F 24.6 °F 30.36 in WSW 0.3 mph 2.0 mph 68 % 0.00 in 0.0 W/m2 CLR
19:03 33.6 °F 24.5 °F 30.36 in Calm     69 % 0.00 in 0.0 W/m2 CLR
19:08 33.2 °F 24.5 °F 30.37 in Calm     70 % 0.00 in 0.0 W/m2 CLR
19:13 32.8 °F 24.1 °F 30.37 in Calm     70 % 0.00 in 0.0 W/m2 CLR
19:18 32.5 °F 24.1 °F 30.37 in Calm     71 % 0.00 in 0.0 W/m2 CLR
19:23 32.6 °F 24.2 °F 30.38 in Calm     71 % 0.00 in 0.0 W/m2 CLR
19:28 32.5 °F 24.5 °F 30.38 in Calm     72 % 0.00 in 0.0 W/m2 CLR
19:33 32.3 °F 24.3 °F 30.39 in Calm     72 % 0.00 in 0.0 W/m2 CLR
19:38 32.4 °F 24.4 °F 30.39 in Calm     72 % 0.00 in 0.0 W/m2 CLR
19:43 32.0 °F 24.0 °F 30.40 in Calm     72 % 0.00 in 0.0 W/m2 CLR
19:48 31.8 °F 24.1 °F 30.40 in Calm     73 % 0.00 in 0.0 W/m2 CLR
19:53 31.5 °F 23.8 °F 30.40 in WSW 0.1 mph   73 % 0.00 in 0.0 W/m2 CLR
19:58 30.9 °F 23.3 °F 30.40 in Calm     73 % 0.00 in 0.0 W/m2 CLR
20:03 30.8 °F 23.5 °F 30.40 in Calm     74 % 0.00 in 0.0 W/m2 CLR
20:08 30.7 °F 23.4 °F 30.40 in Calm     74 % 0.00 in 0.0 W/m2 CLR
20:13 30.9 °F 23.9 °F 30.40 in WSW 1.3 mph 2.3 mph 75 % 0.00 in 0.0 W/m2 CLR
20:18 30.8 °F 23.8 °F 30.40 in Calm     75 % 0.00 in 0.0 W/m2 CLR
20:23 30.4 °F 23.4 °F 30.40 in WSW 2.2 mph 3.5 mph 75 % 0.00 in 0.0 W/m2 CLR
20:28 30.1 °F 23.1 °F 30.40 in Calm     75 % 0.00 in 0.0 W/m2 CLR
20:38 29.9 °F 23.3 °F 30.40 in Calm     76 % 0.00 in 0.0 W/m2 CLR
20:43 30.0 °F 23.4 °F 30.41 in Calm     76 % 0.00 in 0.0 W/m2 CLR
20:48 29.7 °F 23.4 °F 30.40 in Calm     77 % 0.00 in 0.0 W/m2 CLR
20:53 29.5 °F 23.2 °F 30.41 in Calm     77 % 0.00 in 0.0 W/m2 CLR
20:58 29.2 °F 22.9 °F 30.41 in Calm     77 % 0.00 in 0.0 W/m2 CLR
21:03 29.1 °F 23.1 °F 30.42 in Calm     78 % 0.00 in 0.0 W/m2 CLR
21:09 28.9 °F 22.9 °F 30.42 in Calm     78 % 0.00 in 0.0 W/m2 CLR
21:14 28.9 °F 23.2 °F 30.42 in Calm     79 % 0.00 in 0.0 W/m2 CLR
21:19 28.8 °F 23.1 °F 30.42 in Calm     79 % 0.00 in 0.0 W/m2 CLR
21:24 28.7 °F 23.0 °F 30.42 in Calm     79 % 0.00 in 0.0 W/m2 CLR
21:29 28.8 °F 23.4 °F 30.42 in Calm     80 % 0.00 in 0.0 W/m2 CLR
21:34 28.5 °F 22.8 °F 30.42 in Calm     79 % 0.00 in 0.0 W/m2 CLR
21:39 28.5 °F 23.1 °F 30.41 in West 2.1 mph 2.3 mph 80 % 0.00 in 0.0 W/m2 CLR
21:44 28.4 °F 23.0 °F 30.39 in NNE 7.6 mph 10.4 mph 80 % 0.00 in 0.0 W/m2 CLR
21:49 28.7 °F 23.3 °F 30.40 in NNE 3.0 mph 4.0 mph 80 % 0.00 in 0.0 W/m2 CLR
21:54 30.1 °F 24.7 °F 30.40 in Calm     80 % 0.00 in 0.0 W/m2 CLR
21:59 30.4 °F 24.4 °F 30.41 in Calm     78 % 0.00 in 0.0 W/m2 CLR
22:04 30.2 °F 23.9 °F 30.41 in NNE 1.0 mph 1.0 mph 77 % 0.00 in 0.0 W/m2 CLR
22:09 30.1 °F 23.8 °F 30.40 in Calm     77 % 0.00 in 0.0 W/m2 CLR
22:14 29.9 °F 23.6 °F 30.41 in Calm     77 % 0.00 in 0.0 W/m2 CLR
22:19 29.7 °F 23.4 °F 30.41 in Calm     77 % 0.00 in 0.0 W/m2 CLR
22:24 29.6 °F 23.3 °F 30.41 in Calm     77 % 0.00 in 0.0 W/m2 CLR
22:29 29.7 °F 23.4 °F 30.41 in Calm     77 % 0.00 in 0.0 W/m2 CLR
22:34 29.8 °F 23.8 °F 30.41 in Calm     78 % 0.00 in 0.0 W/m2 CLR
22:39 29.9 °F 23.6 °F 30.42 in Calm     77 % 0.00 in 0.0 W/m2 CLR
22:44 29.6 °F 23.3 °F 30.42 in Calm     77 % 0.00 in 0.0 W/m2 CLR
22:49 29.3 °F 23.3 °F 30.41 in Calm     78 % 0.00 in 0.0 W/m2 CLR
22:54 29.1 °F 23.1 °F 30.42 in Calm     78 % 0.00 in 0.0 W/m2 CLR
22:59 29.1 °F 23.4 °F 30.42 in NNE 0.4 mph 1.2 mph 79 % 0.00 in 0.0 W/m2 CLR
23:04 29.1 °F 23.4 °F 30.42 in Calm     79 % 0.00 in 0.0 W/m2 CLR
23:09 29.4 °F 23.7 °F 30.42 in Calm     79 % 0.00 in 0.0 W/m2 CLR
23:14 29.4 °F 23.7 °F 30.42 in Calm     79 % 0.00 in 0.0 W/m2 CLR
23:19 29.0 °F 23.0 °F 30.42 in Calm     78 % 0.00 in 0.0 W/m2 CLR
23:24 28.6 °F 22.9 °F 30.42 in Calm     79 % 0.00 in 0.0 W/m2 CLR
23:29 28.7 °F 23.3 °F 30.42 in Calm     80 % 0.00 in 0.0 W/m2 CLR
23:34 28.9 °F 23.5 °F 30.42 in Calm     80 % 0.00 in 0.0 W/m2 CLR
23:39 29.0 °F 23.6 °F 30.42 in Calm     80 % 0.00 in 0.0 W/m2 CLR
23:44 29.0 °F 23.6 °F 30.42 in Calm     80 % 0.00 in 0.0 W/m2 CLR
23:49 29.1 °F 23.7 °F 30.42 in Calm     80 % 0.00 in 0.0 W/m2 CLR
23:54 29.2 °F 23.5 °F 30.42 in Calm     79 % 0.00 in 0.0 W/m2 CLR
23:59 29.0 °F 23.3 °F 30.42 in Calm     79 % 0.00 in 0.0 W/m2 CLR
Air Products Campus Weather
Compliments of Weather Underground - 3.25 mb